Time;durP1;ratioP1;P1;durP2;ratioP2;P2;SDS_P1;SDS_P2;PMS_P1;PMS_P2;Temp;Humidity;BMP_temperature;BMP_pressure;BME280_temperature;BME280_humidity;BME280_pressure;Samples;Min_cycle;Max_cycle;Signal;HPM_P1;HPM_P2
2023/05/01 00:00:36;;;;;;;9.20;4.88;;;8.60;99.90;;;;;;5101710;28;20051;-47
2023/05/01 00:03:03;;;;;;;6.72;4.80;;;8.60;99.90;;;;;;5070511;28;20051;-45
2023/05/01 00:05:30;;;;;;;6.65;4.75;;;8.60;99.90;;;;;;5069036;28;20040;-46
2023/05/01 00:07:57;;;;;;;10.68;5.13;;;8.60;99.90;;;;;;5080160;28;20064;-45
2023/05/01 00:10:24;;;;;;;10.13;4.97;;;8.50;99.90;;;;;;5090039;28;20096;-46
2023/05/01 00:12:50;;;;;;;8.18;5.35;;;8.50;99.90;;;;;;5090941;28;20549;-45
2023/05/01 00:15:17;;;;;;;8.63;5.35;;;8.50;99.90;;;;;;5091483;28;20084;-46
2023/05/01 00:17:44;;;;;;;14.45;5.57;;;8.40;99.90;;;;;;5111446;28;20035;-46
2023/05/01 00:20:11;;;;;;;9.52;5.97;;;8.30;99.90;;;;;;5093071;28;20052;-45
2023/05/01 00:22:38;;;;;;;8.90;5.00;;;8.30;99.90;;;;;;5111833;28;20048;-46
2023/05/01 00:25:05;;;;;;;7.75;5.10;;;8.30;99.90;;;;;;5093397;28;20044;-45
2023/05/01 00:27:31;;;;;;;9.98;5.30;;;8.30;99.90;;;;;;5071132;28;20068;-46
2023/05/01 00:29:59;;;;;;;7.72;5.45;;;8.30;99.90;;;;;;5072504;28;20455;-46
2023/05/01 00:32:25;;;;;;;9.35;5.47;;;8.30;99.90;;;;;;5111207;28;20044;-46
2023/05/01 00:34:53;;;;;;;8.93;5.75;;;8.20;99.90;;;;;;5091184;28;20405;-46
2023/05/01 00:37:20;;;;;;;8.43;5.35;;;8.20;99.90;;;;;;5061145;28;20074;-46
2023/05/01 00:39:47;;;;;;;9.10;6.10;;;8.10;99.90;;;;;;5095352;28;20085;-45
2023/05/01 00:42:13;;;;;;;7.75;4.97;;;8.00;99.90;;;;;;5110246;28;20048;-46
2023/05/01 00:44:40;;;;;;;11.00;5.72;;;8.00;99.90;;;;;;5087159;28;20036;-45
2023/05/01 00:47:07;;;;;;;7.10;5.07;;;8.00;99.90;;;;;;5058207;28;20045;-45
2023/05/01 00:49:34;;;;;;;10.25;5.75;;;7.90;99.90;;;;;;5080650;28;20389;-46
2023/05/01 00:52:01;;;;;;;9.07;6.00;;;7.90;99.90;;;;;;5072291;28;20492;-46
2023/05/01 00:54:28;;;;;;;8.88;5.50;;;7.80;99.90;;;;;;5094480;28;20035;-46
2023/05/01 00:56:55;;;;;;;12.00;5.97;;;7.70;99.90;;;;;;5083654;28;20048;-45
2023/05/01 00:59:22;;;;;;;8.57;5.80;;;7.70;99.90;;;;;;5107169;28;20385;-45
2023/05/01 01:01:49;;;;;;;8.18;5.70;;;7.70;99.90;;;;;;5082984;28;20037;-45
2023/05/01 01:04:16;;;;;;;9.13;6.10;;;7.70;99.90;;;;;;5101415;28;20044;-46
2023/05/01 01:07:08;;;;;;;7.95;5.50;;;7.70;99.90;;;;;;5084199;28;20044;-46
2023/05/01 01:10:12;;;;;;;8.65;5.55;;;7.80;99.90;;;;;;5072615;28;20032;-45
2023/05/01 01:12:52;;;;;;;9.00;5.65;;;7.90;99.90;;;;;;5065286;28;20101;-45
2023/05/01 01:15:34;;;;;;;10.40;6.00;;;7.90;99.90;;;;;;5063422;28;20072;-45
2023/05/01 01:18:26;;;;;;;9.32;5.45;;;8.00;99.90;;;;;;5050881;28;20109;-45
2023/05/01 01:21:05;;;;;;;10.32;5.78;;;7.90;99.90;;;;;;5069513;28;20432;-45
2023/05/01 01:24:06;;;;;;;8.45;5.65;;;7.90;99.90;;;;;;5108815;28;20407;-46
2023/05/01 01:27:10;;;;;;;13.80;5.97;;;7.90;99.90;;;;;;5091721;28;20491;-45
2023/05/01 01:29:39;;;;;;;8.57;5.07;;;7.90;99.90;;;;;;5061512;28;20074;-45
2023/05/01 01:32:41;;;;;;;10.32;5.07;;;7.90;99.90;;;;;;5081092;28;20040;-47
2023/05/01 01:35:23;;;;;;;11.57;5.97;;;7.90;99.90;;;;;;5072099;28;20435;-45
2023/05/01 01:37:58;;;;;;;9.90;5.65;;;7.90;99.90;;;;;;5080284;28;20063;-45
2023/05/01 01:40:33;;;;;;;10.13;5.88;;;7.90;99.90;;;;;;5092011;28;20105;-46
2023/05/01 01:43:06;;;;;;;10.50;5.40;;;7.90;99.90;;;;;;5062964;28;20496;-45
2023/05/01 01:45:39;;;;;;;7.63;5.07;;;7.90;99.90;;;;;;5071597;28;20051;-47
2023/05/01 01:48:16;;;;;;;8.25;4.95;;;7.80;99.90;;;;;;5086864;28;20063;-46
2023/05/01 01:50:45;;;;;;;9.77;5.47;;;7.80;99.90;;;;;;5068929;28;20757;-45
2023/05/01 01:53:17;;;;;;;7.68;5.32;;;7.70;99.90;;;;;;5086396;28;20519;-46
2023/05/01 01:55:46;;;;;;;8.65;5.05;;;7.70;99.90;;;;;;5088811;28;20047;-45
2023/05/01 01:58:15;;;;;;;8.90;6.45;;;7.80;99.90;;;;;;5094825;28;20048;-45
2023/05/01 02:00:44;;;;;;;9.52;5.43;;;7.80;99.90;;;;;;5086470;28;20052;-45
2023/05/01 02:03:12;;;;;;;6.60;4.70;;;7.80;99.90;;;;;;5072860;28;20040;-45
2023/05/01 02:05:42;;;;;;;10.13;5.05;;;7.80;99.90;;;;;;5081525;28;20069;-45
2023/05/01 02:08:12;;;;;;;9.57;5.40;;;7.80;99.90;;;;;;5093880;28;20032;-47
2023/05/01 02:10:40;;;;;;;8.65;5.55;;;7.80;99.90;;;;;;5098907;28;20512;-46
2023/05/01 02:13:08;;;;;;;9.27;5.63;;;7.80;99.90;;;;;;5077370;28;20092;-45
2023/05/01 02:15:36;;;;;;;7.45;5.22;;;7.80;99.90;;;;;;5078602;28;20041;-45
2023/05/01 02:18:04;;;;;;;8.95;5.97;;;7.70;99.90;;;;;;5092075;28;20051;-45
2023/05/01 02:20:32;;;;;;;9.10;6.38;;;7.70;99.90;;;;;;5076786;28;20044;-45
2023/05/01 02:23:00;;;;;;;7.70;5.50;;;7.70;99.90;;;;;;5054052;28;20460;-45
2023/05/01 02:25:30;;;;;;;9.02;5.82;;;7.60;99.90;;;;;;5053924;28;20052;-45
2023/05/01 02:28:07;;;;;;;12.15;5.97;;;7.60;99.90;;;;;;5090221;28;20044;-45
2023/05/01 02:30:34;;;;;;;9.85;5.80;;;7.50;99.90;;;;;;5069090;28;20118;-45
2023/05/01 02:33:01;;;;;;;11.35;5.95;;;7.40;99.90;;;;;;5054888;28;20094;-46
2023/05/01 02:35:28;;;;;;;;;;;7.30;99.90;;;;;;5081847;28;20484;-45
2023/05/01 02:37:56;;;;;;;10.25;6.03;;;7.20;99.90;;;;;;5113019;28;19945;-46
2023/05/01 02:40:23;;;;;;;10.18;6.47;;;7.20;99.90;;;;;;5065681;28;20052;-46
2023/05/01 02:42:50;;;;;;;;;;;7.20;99.90;;;;;;5055181;28;20081;-45
2023/05/01 02:45:19;;;;;;;12.05;5.85;;;7.10;99.90;;;;;;5077506;28;19923;-46
2023/05/01 02:47:50;;;;;;;8.88;6.10;;;7.20;99.90;;;;;;5115960;22;20075;-45
2023/05/01 02:50:18;;;;;;;10.13;6.28;;;7.20;99.90;;;;;;5063209;28;20048;-45
2023/05/01 02:52:46;;;;;;;9.23;6.05;;;7.10;99.90;;;;;;5054322;28;20048;-46
2023/05/01 02:55:49;;;;;;;13.70;6.55;;;7.20;99.90;;;;;;5068495;28;20117;-46
2023/05/01 02:58:19;;;;;;;11.60;6.15;;;7.20;99.90;;;;;;5061821;28;20436;-45
2023/05/01 03:00:50;;;;;;;9.80;5.65;;;7.20;99.90;;;;;;5085726;28;20470;-46
2023/05/01 03:03:18;;;;;;;10.55;5.57;;;7.20;99.90;;;;;;5073953;28;20084;-47
2023/05/01 03:05:46;;;;;;;8.15;5.68;;;7.20;99.90;;;;;;5086705;28;20058;-46
2023/05/01 03:08:13;;;;;;;10.27;5.95;;;7.20;99.90;;;;;;5061238;28;20045;-47
2023/05/01 03:10:43;;;;;;;12.38;5.93;;;7.20;99.90;;;;;;5054699;28;20068;-47
2023/05/01 03:13:10;;;;;;;8.85;6.05;;;7.10;99.90;;;;;;5084370;28;20055;-46
2023/05/01 03:15:37;;;;;;;11.65;6.03;;;7.10;99.90;;;;;;5094946;28;20058;-47
2023/05/01 03:18:05;;;;;;;9.55;6.45;;;7.20;99.90;;;;;;5094960;28;20083;-46
2023/05/01 03:20:32;;;;;;;8.35;5.57;;;7.10;99.90;;;;;;5054381;28;20555;-47
2023/05/01 03:22:59;;;;;;;8.23;5.65;;;7.20;99.90;;;;;;5079131;28;20566;-47
2023/05/01 03:25:28;;;;;;;9.05;6.13;;;7.20;99.90;;;;;;5074313;28;20040;-46
2023/05/01 03:27:54;;;;;;;10.13;6.07;;;7.20;99.90;;;;;;5069872;28;20509;-47
2023/05/01 03:30:22;;;;;;;;;;;7.20;99.90;;;;;;5111643;28;20039;-46
2023/05/01 03:32:50;;;;;;;10.82;6.07;;;7.20;99.90;;;;;;5089956;28;19970;-48
2023/05/01 03:35:22;;;;;;;9.10;5.70;;;7.20;99.90;;;;;;5095844;28;20040;-47
2023/05/01 03:37:49;;;;;;;13.52;6.95;;;7.20;99.90;;;;;;5086433;28;20412;-46
2023/05/01 03:40:36;;;;;;;11.02;6.10;;;7.20;99.90;;;;;;5071392;28;20048;-46
2023/05/01 03:43:25;;;;;;;9.52;6.07;;;7.10;99.90;;;;;;5097605;28;20054;-46
2023/05/01 03:45:54;;;;;;;11.00;6.63;;;7.20;99.90;;;;;;5093258;28;20261;-46
2023/05/01 03:48:22;;;;;;;10.48;6.60;;;7.20;99.90;;;;;;5070863;28;20119;-46
2023/05/01 03:50:48;;;;;;;12.48;7.03;;;7.20;99.90;;;;;;5053358;28;20036;-46
2023/05/01 03:53:15;;;;;;;11.15;7.35;;;7.20;99.90;;;;;;5087666;28;20036;-47
2023/05/01 03:55:43;;;;;;;11.60;7.28;;;7.20;99.90;;;;;;5066321;28;20048;-46
2023/05/01 03:58:11;;;;;;;11.00;6.63;;;7.30;99.90;;;;;;5091099;28;20051;-47
2023/05/01 04:00:38;;;;;;;11.52;7.15;;;7.20;99.90;;;;;;5088024;28;20134;-46
2023/05/01 04:03:05;;;;;;;9.77;6.80;;;7.30;99.90;;;;;;5071726;28;20044;-46
2023/05/01 04:05:34;;;;;;;14.00;7.78;;;7.30;99.90;;;;;;5065236;28;20068;-46
2023/05/01 04:08:03;;;;;;;11.63;7.50;;;7.30;99.90;;;;;;5087765;28;20050;-46
2023/05/01 04:10:30;;;;;;;10.68;7.22;;;7.30;99.90;;;;;;5051022;28;20143;-46
2023/05/01 04:13:01;;;;;;;11.57;7.45;;;7.40;99.90;;;;;;5058497;28;20040;-46
2023/05/01 04:15:28;;;;;;;10.68;7.93;;;7.40;99.90;;;;;;5099580;28;20032;-46
2023/05/01 04:17:55;;;;;;;13.98;9.23;;;7.30;99.90;;;;;;5053688;28;20044;-47
2023/05/01 04:20:23;;;;;;;;;;;7.40;99.90;;;;;;5088881;28;20050;-46
2023/05/01 04:22:49;;;;;;;13.65;7.82;;;7.40;99.90;;;;;;5092778;28;20296;-46
2023/05/01 04:25:16;;;;;;;13.40;7.65;;;7.40;99.90;;;;;;5079199;28;20110;-47
2023/05/01 04:27:45;;;;;;;11.13;7.05;;;7.50;99.90;;;;;;5063516;28;20059;-47
2023/05/01 04:30:13;;;;;;;11.02;6.32;;;7.50;99.90;;;;;;5070729;28;20047;-46
2023/05/01 04:32:40;;;;;;;9.57;6.03;;;7.50;99.90;;;;;;5054957;28;20135;-46
2023/05/01 04:35:08;;;;;;;;;;;7.60;99.90;;;;;;5077411;28;20579;-46
2023/05/01 04:37:36;;;;;;;;;;;7.60;99.90;;;;;;5093404;28;19926;-47
2023/05/01 04:40:03;;;;;;;10.23;6.03;;;7.60;99.90;;;;;;5072107;28;20301;-46
2023/05/01 04:42:31;;;;;;;13.07;6.35;;;7.70;99.90;;;;;;5071070;28;20044;-46
2023/05/01 04:45:01;;;;;;;12.27;7.20;;;7.60;99.90;;;;;;5064871;28;20475;-46
2023/05/01 04:47:31;;;;;;;9.75;6.82;;;7.60;99.90;;;;;;5057651;28;20040;-46
2023/05/01 04:49:57;;;;;;;10.18;7.10;;;7.60;99.90;;;;;;5085943;28;20496;-47
2023/05/01 04:52:24;;;;;;;12.05;7.25;;;7.60;99.90;;;;;;5110863;28;20117;-46
2023/05/01 04:54:56;;;;;;;11.13;6.90;;;7.60;99.90;;;;;;5068494;28;20078;-47
2023/05/01 04:57:25;;;;;;;12.40;7.18;;;7.60;99.90;;;;;;5089720;28;20047;-46
2023/05/01 04:59:52;;;;;;;10.13;7.00;;;7.70;99.90;;;;;;5062649;28;20496;-47
2023/05/01 05:02:18;;;;;;;12.35;7.57;;;7.80;99.90;;;;;;5071728;28;20488;-46
2023/05/01 05:04:45;;;;;;;8.70;6.82;;;7.90;99.90;;;;;;5065200;28;20048;-46
2023/05/01 05:07:12;;;;;;;15.05;7.40;;;8.00;99.90;;;;;;5061083;28;20089;-46
2023/05/01 05:10:11;;;;;;;11.85;7.15;;;8.10;99.90;;;;;;5093007;28;20124;-46
2023/05/01 05:12:39;;;;;;;10.73;6.38;;;8.30;99.90;;;;;;5082279;28;20048;-45
2023/05/01 05:15:06;;;;;;;12.60;7.15;;;8.30;99.90;;;;;;5062678;28;20044;-46
2023/05/01 05:17:33;;;;;;;;;;;8.50;99.90;;;;;;5067188;28;20040;-46
2023/05/01 05:20:00;;;;;;;9.73;6.47;;;8.60;99.90;;;;;;5058790;28;19974;-46
2023/05/01 05:22:26;;;;;;;10.30;7.35;;;8.70;99.90;;;;;;5061455;28;20135;-46
2023/05/01 05:25:13;;;;;;;10.25;6.82;;;8.90;99.90;;;;;;5097181;28;20143;-46
2023/05/01 05:27:40;;;;;;;12.27;7.50;;;9.10;99.90;;;;;;5073337;28;20041;-47
2023/05/01 05:30:07;;;;;;;10.90;6.70;;;9.20;99.90;;;;;;5081843;28;20419;-46
2023/05/01 05:32:36;;;;;;;12.30;7.22;;;9.30;99.90;;;;;;5073377;28;20037;-46
2023/05/01 05:35:04;;;;;;;11.20;7.05;;;9.30;99.90;;;;;;5071480;28;20040;-46
2023/05/01 05:37:31;;;;;;;;;;;9.40;99.90;;;;;;5074370;28;20523;-47
2023/05/01 05:39:57;;;;;;;9.40;6.32;;;9.50;99.90;;;;;;5072646;28;20030;-46
2023/05/01 05:42:25;;;;;;;9.18;6.57;;;9.50;99.90;;;;;;5070783;28;20101;-46
2023/05/01 05:44:52;;;;;;;8.60;6.30;;;9.70;99.90;;;;;;5069761;28;20044;-46
2023/05/01 05:47:18;;;;;;;12.95;6.57;;;9.70;99.90;;;;;;5069916;28;20470;-46
2023/05/01 05:49:45;;;;;;;11.90;6.03;;;9.90;99.90;;;;;;5082584;28;20404;-46
2023/05/01 05:52:12;;;;;;;7.20;5.45;;;9.90;99.90;;;;;;5088570;28;20040;-46
2023/05/01 05:54:39;;;;;;;9.73;7.03;;;10.00;99.90;;;;;;5065677;28;20500;-45
2023/05/01 05:57:06;;;;;;;9.73;6.13;;;10.00;99.90;;;;;;5070838;28;20131;-46
2023/05/01 05:59:34;;;;;;;11.43;6.22;;;10.10;99.90;;;;;;5074891;28;20032;-46
2023/05/01 06:02:01;;;;;;;8.88;6.43;;;10.20;99.90;;;;;;5086483;28;20071;-46
2023/05/01 06:04:28;;;;;;;8.90;6.53;;;10.30;99.90;;;;;;5064473;28;20071;-46
2023/05/01 06:06:56;;;;;;;10.15;6.00;;;10.50;99.90;;;;;;5066923;28;20044;-46
2023/05/01 06:09:23;;;;;;;8.73;5.97;;;10.60;99.90;;;;;;5069605;28;20048;-46
2023/05/01 06:11:50;;;;;;;9.60;6.30;;;10.80;99.90;;;;;;5075970;28;20044;-46
2023/05/01 06:14:17;;;;;;;9.52;6.28;;;10.90;99.90;;;;;;5063263;28;20041;-46
2023/05/01 06:16:44;;;;;;;8.73;6.45;;;11.00;99.90;;;;;;5073969;28;20498;-46
2023/05/01 06:19:11;;;;;;;12.57;6.72;;;11.10;99.90;;;;;;5078065;28;20101;-46
2023/05/01 06:21:40;;;;;;;9.05;5.70;;;11.20;99.90;;;;;;5066229;28;20404;-46
2023/05/01 06:24:11;;;;;;;8.07;5.68;;;11.20;99.90;;;;;;5064558;28;20051;-46
2023/05/01 06:26:44;;;;;;;9.05;6.10;;;11.30;99.90;;;;;;5075730;28;20121;-46
2023/05/01 06:29:11;;;;;;;11.73;5.85;;;11.50;99.90;;;;;;5075951;28;20078;-46
2023/05/01 06:31:38;;;;;;;;;;;11.70;99.90;;;;;;5065043;28;20520;-47
2023/05/01 06:34:05;;;;;;;7.90;5.28;;;11.60;99.90;;;;;;5066953;28;19924;-46
2023/05/01 06:36:46;;;;;;;10.68;6.03;;;11.60;99.90;;;;;;5067078;28;20090;-46
2023/05/01 06:39:13;;;;;;;10.10;5.78;;;11.70;99.90;;;;;;5062322;28;20054;-46
2023/05/01 06:41:40;;;;;;;7.38;5.38;;;11.80;99.90;;;;;;5063720;28;20055;-46
2023/05/01 06:44:06;;;;;;;7.53;4.95;;;11.90;99.90;;;;;;5090278;28;20121;-46
2023/05/01 06:46:33;;;;;;;10.50;5.57;;;12.10;99.90;;;;;;5073186;28;20542;-46
2023/05/01 06:49:00;;;;;;;6.90;5.28;;;12.20;99.90;;;;;;5074108;28;20058;-46
2023/05/01 06:51:27;;;;;;;7.45;5.63;;;12.30;99.90;;;;;;5078021;28;20032;-46
2023/05/01 06:53:54;;;;;;;9.45;5.53;;;12.30;99.90;;;;;;5072384;28;20052;-46
2023/05/01 06:56:21;;;;;;;6.25;4.95;;;12.30;99.90;;;;;;5062679;28;20047;-46
2023/05/01 06:58:47;;;;;;;6.82;5.13;;;12.40;99.90;;;;;;5074150;28;20045;-46
2023/05/01 07:01:15;;;;;;;7.75;5.32;;;12.50;99.90;;;;;;5092946;28;20055;-46
2023/05/01 07:03:42;;;;;;;7.88;5.00;;;12.60;99.90;;;;;;5088304;28;20051;-47
2023/05/01 07:06:09;;;;;;;6.28;4.65;;;12.70;99.90;;;;;;5086386;28;20040;-46
2023/05/01 07:08:36;;;;;;;6.95;4.40;;;12.80;99.90;;;;;;5070380;28;20058;-46
2023/05/01 07:11:03;;;;;;;6.95;4.93;;;12.90;99.90;;;;;;5082239;28;20549;-46
2023/05/01 07:13:29;;;;;;;5.55;4.72;;;13.00;99.90;;;;;;5081143;28;20430;-46
2023/05/01 07:15:56;;;;;;;5.65;4.60;;;13.00;99.90;;;;;;5092258;28;20420;-46
2023/05/01 07:18:23;;;;;;;10.13;4.90;;;13.10;99.90;;;;;;5086695;28;20041;-46
2023/05/01 07:20:49;;;;;;;6.13;4.57;;;13.10;99.90;;;;;;5082174;28;20036;-46
2023/05/01 07:23:16;;;;;;;7.45;4.10;;;13.20;99.90;;;;;;5079269;28;20101;-46
2023/05/01 07:25:44;;;;;;;7.20;4.43;;;13.30;99.90;;;;;;5088732;28;20036;-46
2023/05/01 07:28:11;;;;;;;5.78;4.85;;;13.20;99.90;;;;;;5087810;28;20052;-46
2023/05/01 07:30:37;;;;;;;10.23;4.55;;;13.30;99.90;;;;;;5082031;28;20063;-46
2023/05/01 07:33:04;;;;;;;5.80;4.85;;;13.40;99.90;;;;;;5080991;28;20040;-46
2023/05/01 07:35:31;;;;;;;7.13;4.80;;;13.40;99.90;;;;;;5083694;28;20413;-46
2023/05/01 07:37:58;;;;;;;8.52;4.80;;;13.40;99.90;;;;;;5085515;28;20047;-44
2023/05/01 07:40:28;;;;;;;7.28;5.00;;;13.40;99.90;;;;;;5093083;28;20040;-46
2023/05/01 07:42:55;;;;;;;6.90;4.70;;;13.40;99.90;;;;;;5087927;28;20048;-46
2023/05/01 07:45:21;;;;;;;6.97;4.90;;;13.30;99.90;;;;;;5071260;28;20098;-47
2023/05/01 07:47:48;;;;;;;7.32;4.75;;;13.40;99.90;;;;;;5082316;28;20041;-46
2023/05/01 07:50:16;;;;;;;5.90;4.35;;;13.40;99.90;;;;;;5091025;28;20040;-47
2023/05/01 07:52:42;;;;;;;7.88;4.97;;;13.30;99.90;;;;;;5089865;28;20031;-46
2023/05/01 07:55:09;;;;;;;10.20;4.80;;;13.50;99.90;;;;;;5092826;28;20078;-46
2023/05/01 07:57:36;;;;;;;5.72;4.13;;;13.80;99.90;;;;;;5083713;28;20084;-47
2023/05/01 08:00:03;;;;;;;5.50;4.53;;;14.00;99.90;;;;;;5076059;28;20486;-46
2023/05/01 08:02:39;;;;;;;8.25;4.50;;;14.00;99.90;;;;;;5104727;28;20114;-46
2023/05/01 08:05:07;;;;;;;13.20;4.40;;;14.20;99.90;;;;;;5109893;28;20101;-47
2023/05/01 08:07:34;;;;;;;7.85;4.50;;;14.30;99.90;;;;;;5091794;28;20039;-46
2023/05/01 08:10:00;;;;;;;7.35;4.43;;;14.20;99.90;;;;;;5110454;28;20085;-46
2023/05/01 08:12:28;;;;;;;4.90;3.65;;;14.40;99.90;;;;;;5075876;28;20040;-46
2023/05/01 08:14:54;;;;;;;8.07;4.80;;;14.40;99.90;;;;;;5071732;28;20098;-46
2023/05/01 08:17:21;;;;;;;6.95;4.70;;;14.50;99.90;;;;;;5100447;28;20036;-46
2023/05/01 08:19:49;;;;;;;8.68;4.70;;;14.70;99.90;;;;;;5109801;28;20043;-47
2023/05/01 08:22:15;;;;;;;6.30;4.40;;;14.90;99.90;;;;;;5073645;28;20079;-46
2023/05/01 08:24:42;;;;;;;4.68;4.22;;;15.00;99.90;;;;;;5078057;28;20119;-46
2023/05/01 08:27:09;;;;;;;7.25;3.70;;;15.20;99.90;;;;;;5082238;28;20557;-46
2023/05/01 08:29:36;;;;;;;6.80;4.40;;;15.20;99.90;;;;;;5090294;28;20040;-46
2023/05/01 08:32:02;;;;;;;4.47;4.03;;;15.50;99.90;;;;;;5080664;28;20043;-45
2023/05/01 08:34:29;;;;;;;6.80;4.30;;;15.40;99.90;;;;;;5108452;28;20035;-46
2023/05/01 08:36:57;;;;;;;6.20;4.40;;;15.60;99.90;;;;;;5052676;28;20052;-45
2023/05/01 08:39:24;;;;;;;9.25;4.55;;;15.70;99.90;;;;;;5078234;28;20051;-46
2023/05/01 08:41:52;;;;;;;7.47;4.63;;;15.80;99.90;;;;;;5103410;28;20040;-46
2023/05/01 08:44:19;;;;;;;5.72;4.40;;;16.00;99.90;;;;;;5104887;28;20492;-45
2023/05/01 08:47:05;;;;;;;;;;;16.10;99.90;;;;;;5070983;28;20117;-47
2023/05/01 08:52:51;;;;;;;6.95;4.70;;;16.30;99.90;;;;;;5106356;28;20063;-47
2023/05/01 08:55:19;;;;;;;8.60;4.70;;;16.50;99.90;;;;;;5109053;28;20126;-45
2023/05/01 08:57:47;;;;;;;5.68;4.20;;;16.30;99.90;;;;;;5096693;28;20044;-45
2023/05/01 09:00:18;;;;;;;5.38;4.47;;;16.50;99.90;;;;;;5093184;28;20044;-44
2023/05/01 09:02:48;;;;;;;9.18;4.32;;;16.60;99.90;;;;;;5085112;28;20052;-44
2023/05/01 09:05:17;;;;;;;6.00;4.72;;;16.80;99.90;;;;;;5084453;28;20032;-44
2023/05/01 09:07:45;;;;;;;6.65;4.70;;;16.80;99.90;;;;;;5086022;28;20126;-44
2023/05/01 09:10:14;;;;;;;5.22;4.32;;;16.80;99.90;;;;;;5092194;28;20052;-44
2023/05/01 09:12:43;;;;;;;5.43;4.10;;;16.70;99.90;;;;;;5093345;28;20044;-44
2023/05/01 09:15:11;;;;;;;5.93;4.28;;;16.70;99.90;;;;;;5090545;28;20036;-46
2023/05/01 09:17:39;;;;;;;6.95;4.43;;;16.80;99.90;;;;;;5078949;28;20063;-45
2023/05/01 09:20:06;;;;;;;6.07;4.53;;;16.90;99.90;;;;;;5098463;28;20054;-45
2023/05/01 09:22:34;;;;;;;6.22;4.72;;;17.00;99.90;;;;;;5105160;28;20066;-45
2023/05/01 09:25:02;;;;;;;6.80;4.22;;;17.00;99.90;;;;;;5092388;28;20070;-45
2023/05/01 09:27:38;;;;;;;5.25;4.25;;;17.00;99.90;;;;;;5105588;28;20063;-44
2023/05/01 09:30:06;;;;;;;6.50;4.90;;;17.10;99.90;;;;;;5092877;28;20127;-47
2023/05/01 09:32:33;;;;;;;5.30;4.70;;;17.20;99.90;;;;;;5088589;28;20105;-45
2023/05/01 09:35:14;;;;;;;8.77;4.60;;;17.30;99.90;;;;;;5092022;28;20036;-45
2023/05/01 09:37:40;;;;;;;5.80;4.35;;;17.50;99.90;;;;;;5092512;28;20048;-45
2023/05/01 09:40:12;;;;;;;5.68;4.25;;;17.60;99.90;;;;;;5093850;28;20048;-45
2023/05/01 09:42:48;;;;;;;5.22;4.28;;;17.70;99.90;;;;;;5092763;28;20048;-45
2023/05/01 09:45:15;;;;;;;4.35;3.67;;;17.80;99.90;;;;;;5093954;28;20492;-46
2023/05/01 09:47:42;;;;;;;7.88;4.50;;;17.60;99.90;;;;;;5093130;28;20083;-47
2023/05/01 09:50:27;;;;;;;4.88;3.85;;;17.40;99.90;;;;;;5081827;28;20489;-46
2023/05/01 09:52:54;;;;;;;4.88;3.65;;;17.40;99.90;;;;;;5058724;28;20044;-45
2023/05/01 09:55:22;;;;;;;8.05;4.38;;;17.50;99.90;;;;;;5072841;28;20124;-46
2023/05/01 09:57:51;;;;;;;5.05;4.05;;;17.50;99.90;;;;;;5086057;28;20094;-45
2023/05/01 10:00:20;;;;;;;5.60;4.07;;;17.60;99.90;;;;;;5092930;28;20054;-45
2023/05/01 10:02:48;;;;;;;5.85;4.50;;;17.60;99.90;;;;;;5085664;28;20040;-45
2023/05/01 10:05:16;;;;;;;5.13;4.35;;;17.50;99.90;;;;;;5091296;28;20127;-47
2023/05/01 10:07:59;;;;;;;;;;;17.60;99.90;;;;;;5074169;28;20043;-45
2023/05/01 10:10:27;;;;;;;4.60;3.95;;;17.70;99.90;;;;;;5080962;28;19928;-45
2023/05/01 10:12:54;;;;;;;7.55;3.88;;;17.80;99.90;;;;;;5075223;28;20048;-45
2023/05/01 10:15:21;;;;;;;;;;;17.80;99.90;;;;;;5085141;28;20058;-45
2023/05/01 10:17:52;;;;;;;5.40;4.30;;;17.80;99.90;;;;;;5093017;28;19920;-49
2023/05/01 10:20:20;;;;;;;4.82;4.00;;;17.80;99.90;;;;;;5091304;28;20122;-48
2023/05/01 10:22:47;;;;;;;5.53;4.22;;;17.80;99.90;;;;;;5089642;28;20094;-45
2023/05/01 10:25:16;;;;;;;5.57;4.47;;;17.50;99.90;;;;;;5087115;28;20127;-46
2023/05/01 10:27:43;;;;;;;5.82;4.25;;;17.50;99.90;;;;;;5092767;28;20040;-47
2023/05/01 10:30:10;;;;;;;9.85;4.47;;;17.50;99.90;;;;;;5084315;28;20048;-48
2023/05/01 10:32:39;;;;;;;6.80;4.30;;;17.60;99.90;;;;;;5093134;28;20474;-44
2023/05/01 10:35:11;;;;;;;5.30;4.18;;;17.70;99.90;;;;;;5090717;28;20101;-46
2023/05/01 10:37:50;;;;;;;7.13;4.38;;;17.90;99.90;;;;;;5088581;28;20381;-46
2023/05/01 10:40:38;;;;;;;6.65;4.10;;;17.80;99.90;;;;;;5088206;28;20071;-46
2023/05/01 10:43:18;;;;;;;6.03;4.50;;;17.70;99.90;;;;;;5092167;28;20032;-47
2023/05/01 10:45:46;;;;;;;5.80;4.68;;;17.70;99.90;;;;;;5086172;28;20055;-45
2023/05/01 10:48:38;;;;;;;7.20;4.75;;;17.80;99.90;;;;;;5092125;28;20036;-45
2023/05/01 10:51:13;;;;;;;5.30;4.22;;;17.90;99.90;;;;;;5090687;28;20044;-46
2023/05/01 10:53:42;;;;;;;4.95;4.43;;;18.10;99.90;;;;;;5092472;28;20066;-44
2023/05/01 10:56:35;;;;;;;5.85;4.03;;;18.20;99.90;;;;;;5084601;28;20036;-47
2023/05/01 10:59:05;;;;;;;5.68;4.20;;;18.30;99.90;;;;;;5086456;28;21299;-46
2023/05/01 11:01:44;;;;;;;5.15;3.95;;;18.30;99.90;;;;;;5093033;28;20040;-45
2023/05/01 11:04:23;;;;;;;7.22;4.57;;;18.10;99.90;;;;;;5081331;28;20072;-46
2023/05/01 11:07:06;;;;;;;8.18;3.85;;;18.00;99.90;;;;;;5092222;28;20507;-48
2023/05/01 11:09:41;;;;;;;4.82;3.85;;;18.00;99.90;;;;;;5090618;28;20051;-45
2023/05/01 11:12:10;;;;;;;5.72;3.70;;;18.20;99.90;;;;;;5091389;28;20090;-45
2023/05/01 11:14:52;;;;;;;7.40;4.40;;;18.10;99.90;;;;;;5086258;28;20047;-45
2023/05/01 11:17:38;;;;;;;4.70;4.10;;;18.10;99.90;;;;;;5071162;28;20042;-46
2023/05/01 11:20:11;;;;;;;7.65;4.28;;;18.20;99.90;;;;;;5089656;28;20079;-45
2023/05/01 11:22:48;;;;;;;5.93;4.65;;;18.20;99.90;;;;;;5091334;28;20044;-44
2023/05/01 11:25:23;;;;;;;6.60;5.03;;;18.10;99.90;;;;;;5071936;28;20106;-47
2023/05/01 11:27:52;;;;;;;6.28;4.30;;;18.10;99.90;;;;;;5088285;28;20424;-44
2023/05/01 11:30:20;;;;;;;7.05;4.53;;;18.10;99.90;;;;;;5072008;28;20434;-45
2023/05/01 11:32:48;;;;;;;6.97;4.35;;;18.10;99.90;;;;;;5074576;28;20459;-45
2023/05/01 11:35:20;;;;;;;6.20;4.22;;;18.10;99.90;;;;;;5089944;28;20043;-46
2023/05/01 11:37:49;;;;;;;4.28;3.88;;;18.10;99.90;;;;;;5087453;28;20040;-45
2023/05/01 11:40:26;;;;;;;4.88;4.38;;;18.10;99.90;;;;;;5090971;28;20040;-47
2023/05/01 11:43:04;;;;;;;4.70;3.95;;;18.10;99.90;;;;;;5086229;28;20048;-44
2023/05/01 11:45:32;;;;;;;7.10;4.65;;;18.00;99.90;;;;;;5089416;28;20036;-48
2023/05/01 11:48:01;;;;;;;5.53;4.25;;;18.00;99.90;;;;;;5081973;28;20155;-47
2023/05/01 11:50:32;;;;;;;3.83;3.50;;;18.00;99.90;;;;;;5089660;28;20439;-44
2023/05/01 11:52:59;;;;;;;4.72;3.47;;;18.10;99.90;;;;;;5088370;28;20093;-46
2023/05/01 11:55:34;;;;;;;4.07;3.60;;;18.20;99.90;;;;;;5090876;28;20496;-44
2023/05/01 11:58:03;;;;;;;4.90;4.22;;;18.10;99.90;;;;;;5083995;28;20040;-47
2023/05/01 12:00:33;;;;;;;4.85;4.03;;;18.00;99.90;;;;;;5090186;28;20497;-47
2023/05/01 12:03:03;;;;;;;4.80;3.72;;;18.00;99.90;;;;;;5057307;28;20425;-45
2023/05/01 12:05:31;;;;;;;4.82;3.47;;;17.90;99.90;;;;;;5089828;28;20042;-47
2023/05/01 12:08:10;;;;;;;4.97;3.90;;;17.90;99.90;;;;;;5089147;28;20048;-45
2023/05/01 12:10:39;;;;;;;3.83;3.42;;;17.80;99.90;;;;;;5087724;28;20036;-47
2023/05/01 12:13:07;;;;;;;4.38;3.60;;;17.50;99.90;;;;;;5089564;28;20040;-47
2023/05/01 12:15:36;;;;;;;10.18;3.83;;;17.30;99.90;;;;;;5088078;28;20093;-45
2023/05/01 12:18:04;;;;;;;4.07;3.60;;;17.20;99.90;;;;;;5076216;28;20428;-47
2023/05/01 12:20:39;;;;;;;4.03;3.53;;;17.10;99.90;;;;;;5087272;28;20040;-45
2023/05/01 12:23:09;;;;;;;5.88;3.65;;;16.90;99.90;;;;;;5088867;28;20043;-47
2023/05/01 12:25:39;;;;;;;4.32;3.85;;;16.80;99.90;;;;;;5082689;28;20048;-47
2023/05/01 12:28:09;;;;;;;5.25;3.65;;;16.70;99.90;;;;;;5089287;28;20492;-47
2023/05/01 12:30:36;;;;;;;4.40;4.00;;;16.70;99.90;;;;;;5086112;28;20040;-47
2023/05/01 12:33:17;;;;;;;4.07;3.67;;;16.60;99.90;;;;;;5090003;28;20101;-45
2023/05/01 12:35:46;;;;;;;4.00;3.60;;;16.40;99.90;;;;;;5087822;28;20055;-45
2023/05/01 12:38:15;;;;;;;5.30;3.92;;;16.20;99.90;;;;;;5089706;28;20074;-45
2023/05/01 12:40:55;;;;;;;4.75;3.60;;;15.90;99.90;;;;;;5089022;28;20126;-45
2023/05/01 12:43:33;;;;;;;4.93;3.80;;;15.60;99.90;;;;;;5089690;28;20044;-49
2023/05/01 12:46:01;;;;;;;6.90;3.90;;;15.40;99.90;;;;;;5087972;28;20044;-46
2023/05/01 12:48:29;;;;;;;5.28;4.25;;;15.30;99.90;;;;;;5089909;28;20044;-44
2023/05/01 12:50:56;;;;;;;7.65;4.35;;;15.20;99.90;;;;;;5090202;28;20085;-48
2023/05/01 12:53:27;;;;;;;4.95;4.05;;;15.10;99.90;;;;;;5089456;28;20047;-46
2023/05/01 12:55:57;;;;;;;5.93;4.63;;;15.10;99.90;;;;;;5078270;28;20504;-44
2023/05/01 12:58:35;;;;;;;6.65;4.80;;;15.10;99.90;;;;;;5087996;28;20562;-46
2023/05/01 13:01:02;;;;;;;5.30;4.68;;;15.00;99.90;;;;;;5087238;28;20078;-49
2023/05/01 13:03:29;;;;;;;;;;;15.00;99.90;;;;;;5089391;28;20458;-46
2023/05/01 13:06:01;;;;;;;5.50;4.30;;;15.20;99.90;;;;;;5079963;28;20325;-46
2023/05/01 13:08:33;;;;;;;5.20;4.22;;;15.30;99.90;;;;;;5088004;28;20076;-48
2023/05/01 13:11:08;;;;;;;5.80;4.50;;;15.30;99.90;;;;;;5090585;28;20405;-45